Time;durP1;ratioP1;P1;durP2;ratioP2;P2;SDS_P1;SDS_P2;PMS_P1;PMS_P2;Temp;Humidity;BMP_temperature;BMP_pressure;BME280_temperature;BME280_humidity;BME280_pressure;Samples;Min_cycle;Max_cycle;Signal;HPM_P1;HPM_P2
2023/09/02 00:01:36;;;;;;;9.90;8.40;;;14.10;99.90;;;;;;5018807;28;20041;-64
2023/09/02 00:04:10;;;;;;;10.57;8.27;;;14.10;99.90;;;;;;5035087;28;20106;-62
2023/09/02 00:06:36;;;;;;;13.10;10.68;;;14.10;99.90;;;;;;5051627;28;20037;-63
2023/09/02 00:09:02;;;;;;;13.65;11.02;;;14.00;99.90;;;;;;5051557;28;20048;-64
2023/09/02 00:11:28;;;;;;;12.45;10.07;;;14.00;99.90;;;;;;5055774;28;20370;-63
2023/09/02 00:13:54;;;;;;;9.68;7.70;;;14.00;99.90;;;;;;5039199;28;20056;-64
2023/09/02 00:16:20;;;;;;;10.77;7.47;;;14.00;99.90;;;;;;5039249;28;20036;-64
2023/09/02 00:18:49;;;;;;;8.00;6.75;;;13.90;99.90;;;;;;5039328;28;20056;-64
2023/09/02 00:21:17;;;;;;;8.80;7.28;;;13.90;99.90;;;;;;5055425;28;20104;-63
2023/09/02 00:23:45;;;;;;;24.60;19.58;;;13.90;99.90;;;;;;5022886;28;20053;-64
2023/09/02 00:26:11;;;;;;;24.17;21.58;;;13.90;99.90;;;;;;5038956;28;20667;-62
2023/09/02 00:28:37;;;;;;;14.30;11.43;;;13.80;99.90;;;;;;5055378;28;20087;-64
2023/09/02 00:31:03;;;;;;;11.98;10.68;;;13.80;99.90;;;;;;5038951;28;20515;-64
2023/09/02 00:33:29;;;;;;;41.55;31.67;;;13.70;99.90;;;;;;5055341;28;20041;-62
2023/09/02 00:35:55;;;;;;;29.02;24.95;;;13.70;99.90;;;;;;5055427;28;20043;-64
2023/09/02 00:38:24;;;;;;;14.60;12.75;;;13.60;99.90;;;;;;5039031;28;20040;-66
2023/09/02 00:40:58;;;;;;;11.48;9.05;;;13.60;99.90;;;;;;5038594;28;20044;-64
2023/09/02 00:43:23;;;;;;;9.38;8.38;;;13.50;99.90;;;;;;5055433;28;20037;-64
2023/09/02 00:45:49;;;;;;;9.75;7.78;;;13.60;99.90;;;;;;5038645;28;20551;-66
2023/09/02 00:48:15;;;;;;;9.45;8.00;;;13.60;99.90;;;;;;5038589;28;20063;-66
2023/09/02 00:50:44;;;;;;;8.98;7.53;;;13.60;99.90;;;;;;5055079;28;20070;-63
2023/09/02 00:53:11;;;;;;;10.07;7.07;;;13.60;99.90;;;;;;5038652;28;20091;-64
2023/09/02 00:55:39;;;;;;;10.50;8.60;;;13.60;99.90;;;;;;5022335;28;20048;-64
2023/09/02 00:58:05;;;;;;;12.32;10.23;;;13.60;99.90;;;;;;5038739;28;20052;-66
2023/09/02 01:00:31;;;;;;;9.70;7.93;;;13.60;99.90;;;;;;5054901;28;20123;-65
2023/09/02 01:02:58;;;;;;;8.45;7.20;;;13.60;99.90;;;;;;5038505;28;20496;-64
2023/09/02 01:05:27;;;;;;;8.80;7.45;;;13.60;99.90;;;;;;5038276;28;20124;-63
2023/09/02 01:07:54;;;;;;;8.30;6.97;;;13.70;99.90;;;;;;5038711;28;20055;-62
2023/09/02 01:10:23;;;;;;;8.73;6.50;;;13.60;99.90;;;;;;5055034;28;20045;-62
2023/09/02 01:12:50;;;;;;;12.48;10.95;;;13.60;99.90;;;;;;5056474;28;20040;-64
2023/09/02 01:15:16;;;;;;;14.60;13.10;;;13.60;99.90;;;;;;5021709;28;20113;-63
2023/09/02 01:17:42;;;;;;;13.90;12.40;;;13.50;99.90;;;;;;5055019;28;20120;-63
2023/09/02 01:20:13;;;;;;;10.13;8.18;;;13.50;99.90;;;;;;5054447;28;20083;-64
2023/09/02 01:22:56;;;;;;;7.70;6.47;;;13.50;99.90;;;;;;5052972;28;20053;-64
2023/09/02 01:25:25;;;;;;;8.13;6.65;;;13.50;99.90;;;;;;5054533;28;20041;-62
2023/09/02 01:27:58;;;;;;;9.20;6.90;;;13.60;99.90;;;;;;5054776;28;20049;-70
2023/09/02 01:30:27;;;;;;;9.73;6.75;;;13.60;99.90;;;;;;5054803;28;20041;-70
2023/09/02 01:32:57;;;;;;;8.18;6.90;;;13.60;99.90;;;;;;5054562;28;20041;-70
2023/09/02 01:35:34;;;;;;;7.07;5.57;;;13.60;99.90;;;;;;5054623;28;20123;-70
2023/09/02 01:38:01;;;;;;;6.80;5.75;;;13.60;99.90;;;;;;5054739;28;20036;-72
2023/09/02 01:40:32;;;;;;;6.97;5.35;;;13.60;99.90;;;;;;5054697;28;20098;-71
2023/09/02 01:42:59;;;;;;;8.70;7.00;;;13.70;99.90;;;;;;5038598;28;20055;-69
2023/09/02 01:45:27;;;;;;;7.45;5.75;;;13.70;99.90;;;;;;5054486;28;20041;-72
2023/09/02 01:47:54;;;;;;;23.60;21.10;;;13.70;99.90;;;;;;5055348;28;20044;-72
2023/09/02 01:50:24;;;;;;;14.93;13.23;;;13.70;99.90;;;;;;5054497;28;20079;-71
2023/09/02 01:52:51;;;;;;;10.30;9.00;;;13.70;99.90;;;;;;5054125;28;20079;-69
2023/09/02 01:55:23;;;;;;;8.82;6.95;;;13.60;99.90;;;;;;5038091;28;20033;-71
2023/09/02 01:57:49;;;;;;;11.80;10.15;;;13.60;99.90;;;;;;5055300;28;20040;-72
2023/09/02 02:00:15;;;;;;;12.60;11.30;;;13.70;99.90;;;;;;5054435;28;20382;-69
2023/09/02 02:02:47;;;;;;;10.13;7.55;;;13.60;99.90;;;;;;5054048;28;20049;-71
2023/09/02 02:05:16;;;;;;;21.90;19.60;;;13.60;99.90;;;;;;5054463;28;20087;-70
2023/09/02 02:07:48;;;;;;;18.65;16.23;;;13.50;99.90;;;;;;5054011;28;20489;-70
2023/09/02 02:10:20;;;;;;;12.73;11.43;;;13.50;99.90;;;;;;5055212;28;20051;-71
2023/09/02 02:12:46;;;;;;;;;;;13.50;99.90;;;;;;5037679;28;20040;-71
2023/09/02 02:15:12;;;;;;;13.07;11.77;;;13.40;99.90;;;;;;5053824;28;19948;-70
2023/09/02 02:17:41;;;;;;;12.30;11.02;;;13.50;99.90;;;;;;5037154;28;20041;-69
2023/09/02 02:20:11;;;;;;;25.63;22.85;;;13.50;99.90;;;;;;5037930;28;20044;-69
2023/09/02 02:22:37;;;;;;;21.35;19.10;;;13.50;99.90;;;;;;5053770;28;20070;-70
2023/09/02 02:25:04;;;;;;;29.27;26.15;;;13.50;99.90;;;;;;5054200;28;20049;-71
2023/09/02 02:27:30;;;;;;;10.13;8.93;;;13.40;99.90;;;;;;5037176;28;20045;-71
2023/09/02 02:29:57;;;;;;;11.50;10.30;;;13.30;99.90;;;;;;5037322;28;20037;-72
2023/09/02 02:32:23;;;;;;;11.00;9.98;;;13.30;99.90;;;;;;5053604;28;20076;-70
2023/09/02 02:34:49;;;;;;;9.10;7.82;;;13.30;99.90;;;;;;5053624;28;20045;-70
2023/09/02 02:37:15;;;;;;;9.05;7.65;;;13.30;99.90;;;;;;5020242;28;20493;-64
2023/09/02 02:39:41;;;;;;;8.10;6.80;;;13.30;99.90;;;;;;5053132;28;20087;-64
2023/09/02 02:42:07;;;;;;;21.67;19.45;;;13.30;99.90;;;;;;5053184;28;20528;-64
2023/09/02 02:44:35;;;;;;;9.32;8.00;;;13.30;99.90;;;;;;5053243;28;20515;-63
2023/09/02 02:47:04;;;;;;;8.35;7.07;;;13.30;99.90;;;;;;5036585;28;20053;-64
2023/09/02 02:49:30;;;;;;;10.77;9.52;;;13.30;99.90;;;;;;5054121;28;20037;-63
2023/09/02 02:51:56;;;;;;;13.38;10.40;;;13.30;99.90;;;;;;5052725;28;20037;-64
2023/09/02 02:54:25;;;;;;;23.98;21.48;;;13.30;99.90;;;;;;5036095;28;20041;-63
2023/09/02 02:56:51;;;;;;;22.52;20.13;;;13.30;99.90;;;;;;5036399;28;20515;-63
2023/09/02 02:59:18;;;;;;;23.75;21.33;;;13.20;99.90;;;;;;5053859;28;20072;-63
2023/09/02 03:01:44;;;;;;;29.45;26.30;;;13.20;99.90;;;;;;5036288;28;20045;-64
2023/09/02 03:04:13;;;;;;;38.83;30.70;;;13.10;99.90;;;;;;5053001;28;20043;-64
2023/09/02 03:06:39;;;;;;;18.23;16.45;;;13.10;99.90;;;;;;5036755;28;20512;-64
2023/09/02 03:09:06;;;;;;;15.45;13.75;;;13.10;99.90;;;;;;5035920;28;20447;-63
2023/09/02 03:11:32;;;;;;;15.60;13.98;;;13.10;99.90;;;;;;5036211;28;20417;-64
2023/09/02 03:13:59;;;;;;;25.75;23.05;;;13.10;99.90;;;;;;5052678;28;20520;-63
2023/09/02 03:16:24;;;;;;;29.10;19.88;;;13.10;99.90;;;;;;5052668;28;20150;-64
2023/09/02 03:18:52;;;;;;;34.08;20.23;;;13.10;99.90;;;;;;5052207;28;20124;-63
2023/09/02 03:21:19;;;;;;;24.50;21.88;;;13.10;99.90;;;;;;5052470;28;20512;-63
2023/09/02 03:23:46;;;;;;;20.27;18.27;;;13.10;99.90;;;;;;5035668;28;20095;-64
2023/09/02 03:26:17;;;;;;;20.33;18.08;;;13.10;99.90;;;;;;5035457;28;20049;-64
2023/09/02 03:28:43;;;;;;;15.55;14.05;;;13.10;99.90;;;;;;5035568;28;20124;-65
2023/09/02 03:31:10;;;;;;;20.05;18.02;;;13.10;99.90;;;;;;5052057;28;20515;-64
2023/09/02 03:33:36;;;;;;;47.17;22.27;;;13.20;99.90;;;;;;5052076;28;20044;-62
2023/09/02 03:36:03;;;;;;;107.38;23.08;;;13.20;99.90;;;;;;5052011;28;20036;-64
2023/09/02 03:38:29;;;;;;;70.43;22.58;;;13.10;99.90;;;;;;5035451;28;20047;-64
2023/09/02 03:40:55;;;;;;;68.32;21.92;;;13.10;99.90;;;;;;5052208;28;20055;-64
2023/09/02 03:43:21;;;;;;;25.55;21.27;;;13.00;99.90;;;;;;5035471;28;20052;-63
2023/09/02 03:45:48;;;;;;;19.55;17.45;;;13.00;99.90;;;;;;5051460;28;20132;-63
2023/09/02 03:48:20;;;;;;;17.75;15.85;;;13.00;99.90;;;;;;5052089;28;20045;-70
2023/09/02 03:51:05;;;;;;;;;;;13.00;99.90;;;;;;5036179;28;20041;-71
2023/09/02 03:53:32;;;;;;;18.85;16.95;;;13.00;99.90;;;;;;5052523;28;19917;-71
2023/09/02 03:55:59;;;;;;;20.60;18.58;;;13.10;99.90;;;;;;5035526;28;20537;-70
2023/09/02 03:58:25;;;;;;;16.25;14.65;;;13.10;99.90;;;;;;5034730;28;20095;-70
2023/09/02 04:00:51;;;;;;;17.38;15.57;;;13.10;99.90;;;;;;5052001;28;20408;-70
2023/09/02 04:03:19;;;;;;;19.48;17.55;;;13.10;99.90;;;;;;5051792;28;20477;-70
2023/09/02 04:05:46;;;;;;;19.95;18.00;;;13.10;99.90;;;;;;5052187;28;20477;-70
2023/09/02 04:08:15;;;;;;;16.27;14.68;;;13.10;99.90;;;;;;5068421;28;20067;-69
2023/09/02 04:10:41;;;;;;;16.23;14.65;;;13.10;99.90;;;;;;5052063;28;20041;-71
2023/09/02 04:13:06;;;;;;;18.63;16.83;;;13.10;99.90;;;;;;5035343;28;20041;-70
2023/09/02 04:15:32;;;;;;;20.15;18.20;;;13.10;99.90;;;;;;5035217;28;20086;-71
2023/09/02 04:18:09;;;;;;;23.92;20.83;;;13.10;99.90;;;;;;5053352;28;20041;-70
2023/09/02 04:20:35;;;;;;;19.98;18.02;;;13.10;99.90;;;;;;5053864;28;20388;-68
2023/09/02 04:23:02;;;;;;;14.45;12.98;;;13.10;99.90;;;;;;5054731;28;20393;-71
2023/09/02 04:25:27;;;;;;;16.30;14.70;;;13.10;99.90;;;;;;5038514;28;20110;-70
2023/09/02 04:27:53;;;;;;;16.08;14.48;;;13.20;99.90;;;;;;5055257;28;20040;-71
2023/09/02 04:30:19;;;;;;;20.42;18.38;;;13.20;99.90;;;;;;5054966;28;20076;-70
2023/09/02 04:32:49;;;;;;;17.13;15.43;;;13.20;99.90;;;;;;5073098;28;20037;-69
2023/09/02 04:35:15;;;;;;;15.15;13.57;;;13.20;99.90;;;;;;5055172;28;20045;-71
2023/09/02 04:37:41;;;;;;;15.73;14.23;;;13.20;99.90;;;;;;5038429;28;20094;-71
2023/09/02 04:40:09;;;;;;;17.67;15.88;;;13.30;99.90;;;;;;5038302;28;20040;-69
2023/09/02 04:42:38;;;;;;;17.67;15.95;;;13.30;99.90;;;;;;5054737;28;20045;-69
2023/09/02 04:45:04;;;;;;;16.95;15.30;;;13.30;99.90;;;;;;5054914;28;20071;-70
2023/09/02 04:47:30;;;;;;;24.05;21.70;;;13.40;99.90;;;;;;5054656;28;20045;-70
2023/09/02 04:49:56;;;;;;;17.92;16.23;;;13.40;99.90;;;;;;5022065;28;20086;-69
2023/09/02 04:52:25;;;;;;;28.23;25.42;;;13.40;99.90;;;;;;5054911;28;20033;-69
2023/09/02 04:54:51;;;;;;;33.42;29.83;;;13.40;99.90;;;;;;5038231;28;20044;-70
2023/09/02 04:57:17;;;;;;;24.50;22.10;;;13.40;99.90;;;;;;5058327;28;20044;-63
2023/09/02 04:59:43;;;;;;;28.27;25.27;;;13.40;99.90;;;;;;5041744;28;20037;-63
2023/09/02 05:02:08;;;;;;;21.90;19.80;;;13.40;99.90;;;;;;5041656;28;20037;-63
2023/09/02 05:04:34;;;;;;;24.63;22.23;;;13.40;99.90;;;;;;5058171;28;20040;-64
2023/09/02 05:07:03;;;;;;;28.27;25.48;;;13.40;99.90;;;;;;5076207;28;20115;-63
2023/09/02 05:09:32;;;;;;;24.70;22.30;;;13.50;99.90;;;;;;5058834;28;20050;-64
2023/09/02 05:11:58;;;;;;;24.98;22.48;;;13.50;99.90;;;;;;5076035;28;20052;-63
2023/09/02 05:14:24;;;;;;;22.67;20.52;;;13.50;99.90;;;;;;5057962;28;20097;-63
2023/09/02 05:16:49;;;;;;;27.00;24.38;;;13.60;99.90;;;;;;5058010;28;20032;-63
2023/09/02 05:19:15;;;;;;;30.50;27.27;;;13.60;99.90;;;;;;5057909;28;20131;-64
2023/09/02 05:21:41;;;;;;;28.00;25.23;;;13.70;99.90;;;;;;5024784;28;20409;-64
2023/09/02 05:24:07;;;;;;;26.95;24.15;;;13.70;99.90;;;;;;5024851;28;20041;-64
2023/09/02 05:26:32;;;;;;;27.67;24.98;;;13.70;99.90;;;;;;5024965;28;20036;-64
2023/09/02 05:28:58;;;;;;;28.52;25.50;;;13.70;99.90;;;;;;5075471;28;20102;-64
2023/09/02 05:31:24;;;;;;;27.30;24.42;;;13.70;99.90;;;;;;5041081;28;20126;-64
2023/09/02 05:33:50;;;;;;;36.88;32.55;;;13.80;99.90;;;;;;5075515;28;20486;-64
2023/09/02 05:36:15;;;;;;;26.75;24.10;;;13.80;99.90;;;;;;5040959;28;20044;-64
2023/09/02 05:38:44;;;;;;;29.17;26.17;;;13.80;99.90;;;;;;5042231;28;20549;-64
2023/09/02 05:41:10;;;;;;;31.02;27.83;;;13.80;99.90;;;;;;5040929;28;20127;-63
2023/09/02 05:43:35;;;;;;;39.53;34.70;;;13.80;99.90;;;;;;5075724;28;20037;-63
2023/09/02 05:46:02;;;;;;;32.88;29.45;;;13.90;99.90;;;;;;5040809;28;20051;-64
2023/09/02 05:48:28;;;;;;;38.47;33.67;;;13.80;99.90;;;;;;5040942;28;20048;-64
2023/09/02 05:50:57;;;;;;;34.22;30.63;;;13.90;99.90;;;;;;5057298;28;20399;-64
2023/09/02 05:53:24;;;;;;;34.95;31.35;;;13.90;99.90;;;;;;5074157;28;20040;-63
2023/09/02 05:55:54;;;;;;;31.85;28.50;;;13.90;99.90;;;;;;5075129;28;20036;-64
2023/09/02 05:58:20;;;;;;;34.90;31.17;;;14.00;99.90;;;;;;5057228;28;20044;-64
2023/09/02 06:00:46;;;;;;;27.20;24.48;;;14.00;99.90;;;;;;5057588;28;20036;-64
2023/09/02 06:03:12;;;;;;;30.08;27.05;;;14.10;99.90;;;;;;5024376;28;20037;-64
2023/09/02 06:05:38;;;;;;;30.65;27.45;;;14.10;99.90;;;;;;5056916;28;20041;-63
2023/09/02 06:08:04;;;;;;;31.88;28.58;;;14.10;99.90;;;;;;5039518;28;20127;-63
2023/09/02 06:10:30;;;;;;;30.63;27.50;;;14.20;99.90;;;;;;5024176;28;20044;-63
2023/09/02 06:12:55;;;;;;;29.65;26.42;;;14.20;99.90;;;;;;5056804;28;20120;-63
2023/09/02 06:15:21;;;;;;;32.25;28.52;;;14.20;99.90;;;;;;5057408;28;20040;-62
2023/09/02 06:17:47;;;;;;;34.45;29.35;;;14.20;99.90;;;;;;5040214;28;20040;-63
2023/09/02 06:20:16;;;;;;;32.72;29.40;;;14.30;99.90;;;;;;5056711;28;20412;-64
2023/09/02 06:22:42;;;;;;;27.95;25.05;;;14.30;99.90;;;;;;5074439;28;20166;-64
2023/09/02 06:25:08;;;;;;;30.10;26.90;;;14.30;99.90;;;;;;5056827;28;20044;-63
2023/09/02 06:27:34;;;;;;;31.30;28.02;;;14.40;99.90;;;;;;5039983;28;20045;-63
2023/09/02 06:30:00;;;;;;;28.23;25.30;;;14.40;99.90;;;;;;5056586;28;20037;-64
2023/09/02 06:32:26;;;;;;;28.52;25.55;;;14.50;99.90;;;;;;5040097;28;20055;-64
2023/09/02 06:34:54;;;;;;;28.67;25.70;;;14.50;99.90;;;;;;5023236;28;20080;-62
2023/09/02 06:37:20;;;;;;;29.40;26.33;;;14.60;99.90;;;;;;5056372;28;20369;-64
2023/09/02 06:39:46;;;;;;;32.67;27.23;;;14.60;99.90;;;;;;5023594;28;20048;-63
2023/09/02 06:42:11;;;;;;;31.42;28.15;;;14.70;99.90;;;;;;5039749;28;20045;-63
2023/09/02 06:44:37;;;;;;;31.23;27.63;;;14.70;99.90;;;;;;5056118;28;20040;-63
2023/09/02 06:47:03;;;;;;;31.38;27.95;;;14.70;99.90;;;;;;5056372;28;20068;-64
2023/09/02 06:49:33;;;;;;;31.15;27.80;;;14.70;99.90;;;;;;5056298;28;20041;-63
2023/09/02 06:52:02;;;;;;;32.83;29.33;;;14.70;99.90;;;;;;5023779;28;20124;-63
2023/09/02 06:54:28;;;;;;;31.45;28.10;;;14.80;99.90;;;;;;5072912;28;20051;-65
2023/09/02 06:56:54;;;;;;;30.88;27.58;;;14.80;99.90;;;;;;5074197;28;20478;-63
2023/09/02 06:59:20;;;;;;;32.47;28.90;;;14.80;99.90;;;;;;5056284;28;20431;-63
2023/09/02 07:01:45;;;;;;;31.13;27.58;;;14.80;99.90;;;;;;5055888;28;20040;-63
2023/09/02 07:04:11;;;;;;;29.85;26.85;;;14.80;99.90;;;;;;5039258;28;20511;-63
2023/09/02 07:06:37;;;;;;;29.50;26.48;;;14.90;99.90;;;;;;5055824;28;20201;-63
2023/09/02 07:09:03;;;;;;;29.95;26.85;;;14.90;99.90;;;;;;5073810;28;20097;-64
2023/09/02 07:11:29;;;;;;;31.73;28.33;;;14.90;99.90;;;;;;5055916;28;20417;-63
2023/09/02 07:13:56;;;;;;;32.97;29.15;;;14.90;99.90;;;;;;5039384;28;20488;-64
2023/09/02 07:16:23;;;;;;;31.55;28.15;;;14.90;99.90;;;;;;5055723;28;20040;-64
2023/09/02 07:18:52;;;;;;;34.42;29.88;;;15.00;99.90;;;;;;5039013;28;20041;-63
2023/09/02 07:21:22;;;;;;;34.47;30.52;;;15.10;99.90;;;;;;5035862;28;20057;-63
2023/09/02 07:23:49;;;;;;;33.25;28.35;;;15.10;99.90;;;;;;5052492;28;20485;-64
2023/09/02 07:26:15;;;;;;;35.63;30.65;;;15.10;99.90;;;;;;5052819;28;20079;-64
2023/09/02 07:28:42;;;;;;;37.30;32.63;;;15.10;99.90;;;;;;5052391;28;20048;-69
2023/09/02 07:31:09;;;;;;;34.88;29.55;;;15.20;99.90;;;;;;5052436;28;20468;-69
2023/09/02 07:33:37;;;;;;;30.83;26.67;;;15.20;99.90;;;;;;5068919;28;20037;-69
2023/09/02 07:36:08;;;;;;;34.30;30.40;;;15.30;99.90;;;;;;5052091;28;20037;-68
2023/09/02 07:38:35;;;;;;;31.67;28.27;;;15.40;99.90;;;;;;5052430;28;20408;-70
2023/09/02 07:41:01;;;;;;;36.58;32.63;;;15.40;99.90;;;;;;5053260;28;20083;-69
2023/09/02 07:43:27;;;;;;;39.45;31.95;;;15.50;99.90;;;;;;5035519;28;20076;-69
2023/09/02 07:45:55;;;;;;;37.28;31.85;;;15.50;99.90;;;;;;5051919;28;20045;-70
2023/09/02 07:48:22;;;;;;;37.13;30.50;;;15.60;99.90;;;;;;5035823;28;20095;-70
2023/09/02 07:50:48;;;;;;;35.17;31.25;;;15.60;99.90;;;;;;5053295;28;20041;-70
2023/09/02 07:53:14;;;;;;;39.08;32.70;;;15.60;99.90;;;;;;5052052;28;20045;-69
2023/09/02 07:55:40;;;;;;;36.05;31.60;;;15.60;99.90;;;;;;5053139;28;20037;-70
2023/09/02 07:58:06;;;;;;;32.92;29.42;;;15.60;99.90;;;;;;5035567;28;20084;-70
2023/09/02 08:00:36;;;;;;;33.78;30.25;;;15.70;99.90;;;;;;5052021;28;20044;-71
2023/09/02 08:03:08;;;;;;;41.70;34.85;;;15.80;99.90;;;;;;5035678;28;20434;-69
2023/09/02 08:05:41;;;;;;;34.40;29.75;;;15.80;99.90;;;;;;5052373;28;20440;-70
2023/09/02 08:08:08;;;;;;;31.90;28.27;;;15.90;99.90;;;;;;5053565;28;20048;-70
2023/09/02 08:10:34;;;;;;;31.98;28.63;;;16.00;99.90;;;;;;5052488;28;20033;-70
2023/09/02 08:13:03;;;;;;;31.65;27.23;;;16.00;99.90;;;;;;5052095;28;20037;-70
2023/09/02 08:15:29;;;;;;;33.75;30.08;;;16.00;99.90;;;;;;5068901;28;20036;-70
2023/09/02 08:17:55;;;;;;;35.40;30.92;;;16.10;99.90;;;;;;5052261;28;20561;-69
2023/09/02 08:20:30;;;;;;;33.80;29.13;;;16.10;99.90;;;;;;5052355;28;20493;-71
2023/09/02 08:22:56;;;;;;;35.83;30.50;;;16.20;99.90;;;;;;5052149;28;20049;-70
2023/09/02 08:25:28;;;;;;;34.50;30.65;;;16.30;99.90;;;;;;5053292;28;20123;-69
2023/09/02 08:27:53;;;;;;;35.60;30.15;;;16.30;99.90;;;;;;5035351;28;20103;-67
2023/09/02 08:30:20;;;;;;;35.65;31.75;;;16.30;99.90;;;;;;5068305;28;20037;-63
2023/09/02 08:32:45;;;;;;;33.83;29.60;;;16.40;99.90;;;;;;5055564;28;20124;-63
2023/09/02 08:35:14;;;;;;;31.35;27.98;;;16.50;99.90;;;;;;5055788;28;20127;-64
2023/09/02 08:37:40;;;;;;;32.30;28.52;;;16.50;99.90;;;;;;5060442;28;20461;-68
2023/09/02 08:40:06;;;;;;;37.60;31.48;;;16.60;99.90;;;;;;5067264;28;20041;-68
2023/09/02 08:42:36;;;;;;;33.42;29.30;;;16.60;99.90;;;;;;5068370;28;20045;-70
2023/09/02 08:45:11;;;;;;;34.08;28.73;;;16.70;99.90;;;;;;5070662;28;20045;-69
2023/09/02 08:47:43;;;;;;;31.08;26.50;;;16.80;99.90;;;;;;5071147;28;20056;-70
2023/09/02 08:50:10;;;;;;;30.42;26.88;;;16.90;99.90;;;;;;5071515;28;20096;-68
2023/09/02 08:52:37;;;;;;;34.35;26.30;;;16.90;99.90;;;;;;5068923;28;20041;-69
2023/09/02 08:55:03;;;;;;;27.30;24.38;;;16.90;99.90;;;;;;5064198;28;20461;-69
2023/09/02 08:57:29;;;;;;;31.13;25.95;;;16.90;99.90;;;;;;5066307;28;20044;-70
2023/09/02 08:59:55;;;;;;;29.75;26.27;;;17.00;99.90;;;;;;5067130;28;20051;-69
2023/09/02 09:02:25;;;;;;;30.00;24.33;;;17.00;99.90;;;;;;5068997;28;20056;-68
2023/09/02 09:04:52;;;;;;;32.38;27.40;;;17.00;99.90;;;;;;5068481;28;20047;-69
2023/09/02 09:07:19;;;;;;;29.00;25.10;;;17.10;99.90;;;;;;5063080;28;20053;-69
2023/09/02 09:09:46;;;;;;;29.00;23.83;;;17.10;99.90;;;;;;5064262;28;20080;-69
2023/09/02 09:12:13;;;;;;;28.00;22.60;;;17.10;99.90;;;;;;5064753;28;20071;-71
2023/09/02 09:14:45;;;;;;;28.10;24.23;;;17.20;99.90;;;;;;5060138;28;20397;-69
2023/09/02 09:17:12;;;;;;;28.17;23.63;;;17.30;99.90;;;;;;5061865;28;20045;-68
2023/09/02 09:19:39;;;;;;;30.15;23.90;;;17.30;99.90;;;;;;5069742;28;20041;-69
2023/09/02 09:22:05;;;;;;;28.73;24.65;;;17.30;99.90;;;;;;5052997;28;20060;-70
2023/09/02 09:24:31;;;;;;;27.95;22.75;;;17.40;99.90;;;;;;5069170;28;20052;-68
2023/09/02 09:27:02;;;;;;;30.92;24.85;;;17.40;99.90;;;;;;5067849;28;20120;-68
2023/09/02 09:29:40;;;;;;;30.30;24.90;;;17.40;99.90;;;;;;5067995;28;20493;-69
2023/09/02 09:32:12;;;;;;;30.48;26.75;;;17.40;99.90;;;;;;5069121;28;20179;-67
2023/09/02 09:34:45;;;;;;;28.42;23.48;;;17.50;99.90;;;;;;5066186;28;20041;-69
2023/09/02 09:37:11;;;;;;;28.02;21.63;;;17.50;99.90;;;;;;5050864;28;20623;-68
2023/09/02 09:40:01;;;;;;;27.83;23.20;;;17.70;99.90;;;;;;5062742;28;20080;-68
2023/09/02 09:42:37;;;;;;;25.13;21.95;;;17.80;99.90;;;;;;5039265;28;20099;-68
2023/09/02 09:45:04;;;;;;;25.48;22.08;;;17.80;99.90;;;;;;5058527;28;20037;-70
2023/09/02 09:47:34;;;;;;;26.52;20.52;;;18.10;99.90;;;;;;5059214;28;20045;-71
2023/09/02 09:50:14;;;;;;;27.85;21.40;;;18.30;99.90;;;;;;5056310;28;20040;-70
2023/09/02 09:52:40;;;;;;;23.88;18.80;;;18.20;99.90;;;;;;5038437;28;20517;-70
2023/09/02 09:55:06;;;;;;;22.77;17.52;;;18.30;99.90;;;;;;5054683;28;20068;-70
2023/09/02 09:57:36;;;;;;;21.38;17.13;;;18.40;99.90;;;;;;5054364;28;20056;-71
2023/09/02 10:00:05;;;;;;;22.80;18.13;;;18.50;99.90;;;;;;5037884;28;20080;-70
2023/09/02 10:02:31;;;;;;;21.88;17.42;;;18.50;99.90;;;;;;5037747;28;20045;-70
2023/09/02 10:04:59;;;;;;;21.35;17.25;;;18.50;99.90;;;;;;5054207;28;20045;-71
2023/09/02 10:07:31;;;;;;;21.88;17.00;;;18.50;99.90;;;;;;5055156;28;20159;-70
2023/09/02 10:09:59;;;;;;;23.77;17.58;;;18.60;99.90;;;;;;5054312;28;20041;-70
2023/09/02 10:12:26;;;;;;;22.02;15.63;;;18.50;99.90;;;;;;5054073;28;20397;-70
2023/09/02 10:14:51;;;;;;;21.73;16.45;;;18.50;99.90;;;;;;5054031;28;20036;-70
2023/09/02 10:17:18;;;;;;;21.73;16.63;;;18.70;99.90;;;;;;5037193;28;20047;-70
2023/09/02 10:19:45;;;;;;;23.35;16.90;;;18.80;99.90;;;;;;5053694;28;20179;-70
2023/09/02 10:22:19;;;;;;;22.40;15.93;;;18.90;99.90;;;;;;5053460;28;20053;-70
2023/09/02 10:24:58;;;;;;;21.33;16.42;;;19.00;99.90;;;;;;5055181;28;20052;-70
2023/09/02 10:27:24;;;;;;;21.20;15.98;;;19.10;99.90;;;;;;5054628;28;20048;-71
2023/09/02 10:29:56;;;;;;;21.52;16.15;;;19.20;99.90;;;;;;5053434;28;20033;-69
2023/09/02 10:32:28;;;;;;;22.83;16.13;;;19.20;99.90;;;;;;5053684;28;20477;-70
2023/09/02 10:35:16;;;;;;;20.98;15.95;;;19.20;99.90;;;;;;5053366;28;20049;-70
2023/09/02 10:37:45;;;;;;;20.55;15.73;;;19.40;99.90;;;;;;5053666;28;20041;-69
2023/09/02 10:40:21;;;;;;;20.05;15.80;;;19.60;99.90;;;;;;5053289;28;20131;-70
2023/09/02 10:42:51;;;;;;;20.83;13.98;;;19.60;99.90;;;;;;5053428;28;20045;-70
2023/09/02 10:45:31;;;;;;;18.65;14.05;;;19.80;99.90;;;;;;5053415;28;20045;-70
2023/09/02 10:48:00;;;;;;;22.08;15.45;;;20.20;99.90;;;;;;5053173;28;20048;-70
2023/09/02 10:50:38;;;;;;;21.63;14.48;;;20.20;99.90;;;;;;5069768;28;20119;-72
2023/09/02 10:53:04;;;;;;;20.10;14.93;;;20.50;99.90;;;;;;5052879;28;20084;-69
2023/09/02 10:55:31;;;;;;;19.13;15.65;;;20.80;99.90;;;;;;5052852;28;20118;-69
2023/09/02 10:57:59;;;;;;;17.73;14.52;;;20.90;99.90;;;;;;5036510;28;20040;-63
2023/09/02 11:00:27;;;;;;;18.35;13.13;;;21.00;99.90;;;;;;5052968;28;20554;-63
2023/09/02 11:02:58;;;;;;;19.98;13.90;;;21.10;99.90;;;;;;5036023;28;20041;-63
2023/09/02 11:05:26;;;;;;;17.70;13.57;;;21.10;99.90;;;;;;5036027;28;20076;-64
2023/09/02 11:07:53;;;;;;;21.48;14.38;;;21.10;99.90;;;;;;5019681;28;20489;-64
2023/09/02 11:10:39;;;;;;;18.38;12.80;;;21.00;99.90;;;;;;5052536;28;20099;-63
2023/09/02 11:13:05;;;;;;;20.10;14.10;;;21.00;99.90;;;;;;5052165;28;20515;-64
2023/09/02 11:15:36;;;;;;;18.83;14.18;;;21.10;99.90;;;;;;5052461;28;20124;-64
2023/09/02 11:18:28;;;;;;;16.80;13.55;;;21.10;99.90;;;;;;5019804;28;20041;-63
2023/09/02 11:20:54;;;;;;;17.35;12.30;;;21.10;99.90;;;;;;5052113;28;20068;-63
2023/09/02 11:23:24;;;;;;;16.83;13.55;;;21.10;99.90;;;;;;5052174;28;20053;-62
2023/09/02 11:26:17;;;;;;;18.08;12.88;;;21.20;99.90;;;;;;5035722;28;20036;-63
2023/09/02 11:28:46;;;;;;;16.52;12.63;;;21.20;99.90;;;;;;5052251;28;20409;-64
2023/09/02 11:31:18;;;;;;;17.10;12.82;;;21.30;99.90;;;;;;5052219;28;20037;-63
2023/09/02 11:33:51;;;;;;;18.25;13.05;;;21.30;99.90;;;;;;5052086;28;20123;-63
2023/09/02 11:36:18;;;;;;;16.88;13.23;;;20.90;99.90;;;;;;5052177;28;20041;-62
2023/09/02 11:38:45;;;;;;;16.67;12.73;;;21.00;99.90;;;;;;5052267;28;20382;-64
2023/09/02 11:41:21;;;;;;;17.50;12.57;;;21.00;99.90;;;;;;5068823;28;20033;-63
2023/09/02 11:43:50;;;;;;;18.50;14.50;;;21.00;99.90;;;;;;5052256;28;20080;-64
2023/09/02 11:46:16;;;;;;;18.83;14.15;;;20.90;99.90;;;;;;5051961;28;20469;-62
2023/09/02 11:48:41;;;;;;;19.23;13.27;;;20.80;99.90;;;;;;5068774;28;20080;-63
2023/09/02 11:51:11;;;;;;;17.45;13.25;;;20.70;99.90;;;;;;5052139;28;20473;-64
2023/09/02 11:53:38;;;;;;;18.25;13.13;;;20.90;99.90;;;;;;5035325;28;20076;-68
2023/09/02 11:56:23;;;;;;;17.60;13.20;;;20.90;99.90;;;;;;5051989;28;20045;-70
2023/09/02 11:58:51;;;;;;;20.08;14.07;;;21.00;99.90;;;;;;5035888;28;20044;-70
2023/09/02 12:01:18;;;;;;;17.02;11.85;;;21.10;99.90;;;;;;5035574;28;20048;-69
2023/09/02 12:03:47;;;;;;;16.15;11.82;;;21.20;99.90;;;;;;5052193;28;20161;-68
2023/09/02 12:06:16;;;;;;;17.52;12.45;;;21.30;99.90;;;;;;5051174;28;20049;-69
2023/09/02 12:08:42;;;;;;;16.85;11.63;;;21.40;99.90;;;;;;5051676;28;20047;-71
2023/09/02 12:11:12;;;;;;;15.65;10.50;;;21.60;99.90;;;;;;5035186;28;20128;-70
2023/09/02 12:13:39;;;;;;;15.13;10.82;;;21.70;99.90;;;;;;5019019;28;20037;-70
2023/09/02 12:16:05;;;;;;;16.23;10.43;;;21.60;99.90;;;;;;5035377;28;20044;-71
2023/09/02 12:18:31;;;;;;;14.50;10.13;;;21.80;99.90;;;;;;5035178;28;20052;-70
2023/09/02 12:20:57;;;;;;;15.35;9.63;;;21.80;99.90;;;;;;5051640;28;20052;-70
2023/09/02 12:23:23;;;;;;;14.18;10.82;;;21.90;99.90;;;;;;5035057;28;20057;-70
2023/09/02 12:26:12;;;;;;;14.80;10.43;;;21.90;99.90;;;;;;5051525;28;20052;-71
2023/09/02 12:28:48;;;;;;;15.60;11.07;;;22.00;99.90;;;;;;5035661;28;20043;-70
2023/09/02 12:31:16;;;;;;;14.02;10.10;;;22.10;99.90;;;;;;5051805;28;20097;-71
2023/09/02 12:33:42;;;;;;;14.85;10.50;;;22.00;99.90;;;;;;5051535;28;20120;-70
2023/09/02 12:36:08;;;;;;;14.88;10.85;;;22.10;99.90;;;;;;5035078;28;20120;-71